Main page
METAR-TAF:

METAR-TAF

Airports :

Nador International Airport

Nador, Morocco

latitude: 34-59-20N, longitude: 003-01-42W, elevation: 175 m

Current weather observation

The report was made 40 minutes ago, at 10:00 UTC
Calm wind
Temperature 14°C
Humidity 72%
Pressure 1023 hPa
Visibility 10 km or more
Scattered clouds at a height of 2600 ft
Scattered clouds at a height of 10000 ft

METAR: GMMW 201000Z 00000KT 9999 SCT026 SCT100 14/09 Q1023 NOSIG

Time: 10:40 (10:40 UTC)

Forecast

The report was made 5 hours and 40 minutes ago, at 05:00 UTC
Forecast valid from 20 at 06 UTC to 21 at 12 UTC
Wind 5 kt from the West
Visibility: 7000 m
Scattered clouds at a height of 1300 ft
Scattered clouds at a height of 2600 ft
Probability 40%
from 20 at 06 UTC to 20 at 07 UTC
Visibility: 3000 m
mist

TAF: GMMW 200500Z 2006/2112 28005KT 7000 SCT013 SCT026 PROB40 2006/2007 3000 BR

Weather observations and forecasts of more than 4000 airports (METAR and TAF reports).

The available stations are represented by yellow and red dots on the map.

Hover mouse over dot to see the name of the station.

Then click to see weather observations and forecasts.

To change the map : click on the green buttons with a black cross to zoom in, on the green button with a dash to zoom out, or on the green arrows for adjacent maps.


METAR-TAF: